createdAt,value
2022-12-20T00:00:36.089Z,53.99
2022-12-20T00:02:38.503Z,53.92
2022-12-20T00:04:40.649Z,54.10
2022-12-20T00:06:43.311Z,53.51
2022-12-20T00:08:45.573Z,53.53
2022-12-20T00:10:47.668Z,53.69
2022-12-20T00:21:41.079Z,54.46
2022-12-20T00:23:43.768Z,54.37
2022-12-20T00:26:53.795Z,54.04
2022-12-20T00:28:57.179Z,54.03
2022-12-20T00:30:59.548Z,54.32
2022-12-20T00:33:01.781Z,54.14
2022-12-20T00:35:04.587Z,54.09
2022-12-20T00:37:06.910Z,54.36
2022-12-20T00:39:13.495Z,54.19
2022-12-20T00:41:18.860Z,54.12
2022-12-20T00:43:21.125Z,53.63
2022-12-20T00:45:23.644Z,54.05
2022-12-20T00:47:25.802Z,54.36
2022-12-20T00:49:30.627Z,54.08
2022-12-20T00:51:33.011Z,54.07
2022-12-20T00:53:36.525Z,54.51
2022-12-20T00:55:56.733Z,54.02
2022-12-20T00:58:01.240Z,54.02
2022-12-20T01:00:07.317Z,53.94
2022-12-20T01:02:09.629Z,54.24
2022-12-20T01:04:11.865Z,54.01
2022-12-20T01:06:18.417Z,54.03
2022-12-20T01:08:22.657Z,54.18
2022-12-20T01:10:25.478Z,54.42
2022-12-20T01:12:27.469Z,54.34
2022-12-20T01:14:29.464Z,54.34
2022-12-20T01:16:35.833Z,54.42
2022-12-20T01:18:38.120Z,54.56
2022-12-20T01:20:40.724Z,54.27
2022-12-20T01:22:47.537Z,54.51
2022-12-20T01:24:50.061Z,54.49
2022-12-20T01:26:52.092Z,54.37
2022-12-20T01:28:57.506Z,54.49
2022-12-20T01:31:02.566Z,54.52
2022-12-20T01:33:04.633Z,54.50
2022-12-20T01:35:07.344Z,54.79
2022-12-20T01:37:10.480Z,54.69
2022-12-20T01:39:15.369Z,54.68
2022-12-20T01:41:22.383Z,54.99
2022-12-20T01:43:26.230Z,54.90
2022-12-20T01:45:31.214Z,54.79
2022-12-20T01:47:37.241Z,54.86
2022-12-20T01:49:44.519Z,54.92
2022-12-20T01:52:05.687Z,54.81
2022-12-20T01:54:14.423Z,54.43
2022-12-20T01:56:16.724Z,54.67
2022-12-20T01:58:21.837Z,54.95
2022-12-20T02:00:24.503Z,54.85
2022-12-20T02:02:27.546Z,54.36
2022-12-20T02:04:29.909Z,54.51
2022-12-20T02:06:32.045Z,54.85
2022-12-20T02:08:35.886Z,54.59
2022-12-20T02:10:47.177Z,54.48
2022-12-20T02:12:56.532Z,54.46
2022-12-20T02:15:13.571Z,54.69
2022-12-20T02:17:34.486Z,54.43
2022-12-20T02:19:54.656Z,54.40
2022-12-20T02:22:28.258Z,54.79
2022-12-20T02:24:55.383Z,54.82
2022-12-20T02:26:57.720Z,55.08
2022-12-20T02:29:36.977Z,55.30
2022-12-20T02:31:48.046Z,54.88
2022-12-20T02:33:54.978Z,55.07
2022-12-20T02:36:00.518Z,55.09
2022-12-20T02:38:05.448Z,55.11
2022-12-20T02:40:08.435Z,54.75
2022-12-20T02:42:15.955Z,54.95
2022-12-20T02:44:39.506Z,55.05
2022-12-20T02:46:45.204Z,55.20
2022-12-20T02:48:49.576Z,54.91
2022-12-20T02:50:55.935Z,55.31
2022-12-20T02:52:59.920Z,54.74
2022-12-20T02:55:03.633Z,55.13
2022-12-20T02:57:22.776Z,55.59
2022-12-20T02:59:42.886Z,55.60
2022-12-20T03:01:50.551Z,55.08
2022-12-20T03:03:54.733Z,55.36
2022-12-20T03:05:57.239Z,55.72
2022-12-20T03:07:59.896Z,55.47
2022-12-20T03:10:02.022Z,55.68
2022-12-20T03:12:05.141Z,55.34
2022-12-20T03:14:10.979Z,55.13
2022-12-20T03:16:13.280Z,55.63
2022-12-20T03:18:15.722Z,55.67
2022-12-20T03:20:17.785Z,55.48
2022-12-20T03:22:23.782Z,55.88
2022-12-20T03:24:31.518Z,55.85
2022-12-20T03:26:34.802Z,55.81
2022-12-20T03:28:37.232Z,55.59
2022-12-20T03:30:41.113Z,55.75
2022-12-20T03:32:43.863Z,55.47
2022-12-20T03:34:47.364Z,55.69
2022-12-20T03:36:53.057Z,55.69
2022-12-20T03:38:56.356Z,55.78
2022-12-20T03:41:00.332Z,55.39
2022-12-20T03:43:05.204Z,55.63
2022-12-20T03:45:07.890Z,55.23
2022-12-20T03:47:10.174Z,55.69
2022-12-20T03:49:15.858Z,55.38
2022-12-20T03:51:23.305Z,55.40
2022-12-20T03:53:25.904Z,55.40
2022-12-20T03:55:28.825Z,55.20
2022-12-20T03:57:31.068Z,55.53
2022-12-20T03:59:34.617Z,55.31
2022-12-20T04:01:38.836Z,55.42
2022-12-20T04:03:44.269Z,55.15
2022-12-20T04:05:46.854Z,55.07
2022-12-20T04:07:49.045Z,54.80
2022-12-20T04:09:51.536Z,54.83
2022-12-20T04:11:53.803Z,54.48
2022-12-20T04:13:56.010Z,54.65
2022-12-20T04:16:00.987Z,54.72
2022-12-20T04:18:07.157Z,54.48
2022-12-20T04:20:21.012Z,54.24
2022-12-20T04:22:30.852Z,54.46
2022-12-20T04:24:38.723Z,55.07
2022-12-20T04:26:51.957Z,55.09
2022-12-20T04:28:54.181Z,55.28
2022-12-20T04:30:58.939Z,55.20
2022-12-20T04:33:04.634Z,54.85
2022-12-20T04:35:07.873Z,55.48
2022-12-20T04:37:15.407Z,55.59
2022-12-20T04:39:28.210Z,55.55
2022-12-20T04:41:53.083Z,55.41
2022-12-20T04:43:57.481Z,55.59
2022-12-20T04:46:05.767Z,55.23
2022-12-20T04:48:46.007Z,55.36
2022-12-20T04:50:52.747Z,54.82
2022-12-20T04:53:13.914Z,54.91
2022-12-20T04:55:16.547Z,54.93
2022-12-20T04:57:18.877Z,54.73
2022-12-20T04:59:21.466Z,54.98
2022-12-20T05:01:27.291Z,54.83
2022-12-20T05:03:29.786Z,55.26
2022-12-20T05:05:32.567Z,55.16
2022-12-20T05:07:34.859Z,55.40
2022-12-20T05:09:37.719Z,55.49
2022-12-20T05:11:40.563Z,55.13
2022-12-20T05:13:46.991Z,55.29
2022-12-20T05:15:54.512Z,55.28
2022-12-20T05:18:00.569Z,55.35
2022-12-20T05:20:11.207Z,55.20
2022-12-20T05:22:35.398Z,55.38
2022-12-20T05:25:00.784Z,55.43
2022-12-20T05:27:06.567Z,55.18
2022-12-20T05:29:08.540Z,55.15
2022-12-20T05:31:11.057Z,55.45
2022-12-20T05:33:13.251Z,56.02
2022-12-20T05:35:17.678Z,56.15
2022-12-20T05:37:22.635Z,55.90
2022-12-20T05:39:25.043Z,55.90
2022-12-20T05:41:29.904Z,55.66
2022-12-20T05:43:35.401Z,55.76
2022-12-20T05:45:38.858Z,55.71
2022-12-20T05:47:48.611Z,55.62
2022-12-20T05:49:54.288Z,55.91
2022-12-20T05:51:56.899Z,55.75
2022-12-20T05:54:02.283Z,55.44
2022-12-20T05:56:16.973Z,55.99
2022-12-20T05:58:19.519Z,55.63
2022-12-20T06:00:34.667Z,55.51
2022-12-20T06:02:37.196Z,55.56
2022-12-20T06:04:39.708Z,56.32
2022-12-20T06:06:49.733Z,56.06
2022-12-20T06:08:56.462Z,56.26
2022-12-20T06:11:11.804Z,56.01
2022-12-20T06:13:24.362Z,56.04
2022-12-20T06:15:29.566Z,56.27
2022-12-20T06:17:33.138Z,55.96
2022-12-20T06:19:35.964Z,56.01
2022-12-20T06:21:38.246Z,55.74
2022-12-20T06:23:52.686Z,56.12
2022-12-20T06:25:55.760Z,55.86
2022-12-20T06:28:00.631Z,56.32
2022-12-20T06:30:06.253Z,56.32
2022-12-20T06:32:20.839Z,56.02
2022-12-20T06:34:24.463Z,56.22
2022-12-20T06:36:27.082Z,57.10
2022-12-20T06:38:29.663Z,56.36
2022-12-20T06:40:32.093Z,56.26
2022-12-20T06:42:36.658Z,56.96
2022-12-20T06:44:38.777Z,56.32
2022-12-20T06:46:41.244Z,56.54
2022-12-20T06:48:43.632Z,57.10
2022-12-20T06:50:55.589Z,57.18
2022-12-20T06:52:59.375Z,57.00
2022-12-20T06:55:01.449Z,56.88
2022-12-20T06:57:07.798Z,57.06
2022-12-20T06:59:10.490Z,57.09
2022-12-20T07:01:12.784Z,57.61
2022-12-20T07:03:15.828Z,57.34
2022-12-20T07:05:18.159Z,58.12
2022-12-20T07:07:20.371Z,57.59
2022-12-20T07:09:22.917Z,57.69
2022-12-20T07:11:25.156Z,57.88
2022-12-20T07:13:28.226Z,57.55
2022-12-20T07:15:30.667Z,57.66
2022-12-20T07:17:32.798Z,57.54
2022-12-20T07:19:37.623Z,57.89
2022-12-20T07:21:39.961Z,58.04
2022-12-20T07:23:42.430Z,58.34
2022-12-20T07:25:52.458Z,57.98
2022-12-20T07:27:54.571Z,58.17
2022-12-20T07:29:59.558Z,58.05
2022-12-20T07:32:01.715Z,57.96
2022-12-20T07:34:07.005Z,58.17
2022-12-20T07:36:12.773Z,57.98
2022-12-20T07:38:14.842Z,57.71
2022-12-20T07:40:17.716Z,57.77
2022-12-20T07:42:20.061Z,57.43
2022-12-20T07:44:25.210Z,57.16
2022-12-20T07:46:28.806Z,57.05
2022-12-20T07:48:34.507Z,57.02
2022-12-20T07:50:37.714Z,56.97
2022-12-20T07:52:44.287Z,56.49
2022-12-20T07:54:54.251Z,55.95
2022-12-20T07:57:00.884Z,55.79
2022-12-20T07:59:04.454Z,55.81
2022-12-20T08:01:07.697Z,55.63
2022-12-20T08:03:17.248Z,55.40
2022-12-20T08:05:19.450Z,56.13
2022-12-20T08:07:21.672Z,55.89
2022-12-20T08:09:26.168Z,55.97
2022-12-20T08:11:30.559Z,55.90
2022-12-20T08:13:34.008Z,55.87
2022-12-20T08:15:39.724Z,56.16
2022-12-20T08:17:41.644Z,55.93
2022-12-20T08:19:43.707Z,55.47
2022-12-20T08:21:45.632Z,55.23
2022-12-20T08:23:47.765Z,55.40
2022-12-20T08:25:50.332Z,55.17
2022-12-20T08:27:53.531Z,55.32
2022-12-20T08:29:55.588Z,54.86
2022-12-20T08:31:57.928Z,55.18
2022-12-20T08:33:59.904Z,54.87
2022-12-20T08:36:04.654Z,55.24
2022-12-20T08:38:07.671Z,54.96
2022-12-20T08:40:10.500Z,54.55
2022-12-20T08:42:12.926Z,53.77
2022-12-20T08:44:15.223Z,53.85
2022-12-20T08:46:17.821Z,53.09
2022-12-20T08:48:19.964Z,53.31
2022-12-20T08:50:22.057Z,53.15
2022-12-20T08:52:24.235Z,53.27
2022-12-20T08:54:26.239Z,52.83
2022-12-20T08:56:28.712Z,52.22
2022-12-20T08:58:30.947Z,51.52
2022-12-20T09:00:36.944Z,50.35
2022-12-20T09:02:41.559Z,51.22
2022-12-20T09:04:44.590Z,50.29
2022-12-20T09:06:47.432Z,49.54
2022-12-20T09:08:50.207Z,51.00
2022-12-20T09:10:53.345Z,50.47
2022-12-20T09:12:55.387Z,50.34
2022-12-20T09:14:57.881Z,50.78
2022-12-20T09:16:59.907Z,49.95
2022-12-20T09:19:05.833Z,50.05
2022-12-20T09:21:10.035Z,49.67
2022-12-20T09:23:12.345Z,50.08
2022-12-20T09:25:14.448Z,49.88
2022-12-20T09:27:16.333Z,49.12
2022-12-20T09:29:25.818Z,48.95
2022-12-20T09:31:29.549Z,48.75
2022-12-20T09:33:34.003Z,48.77
2022-12-20T09:35:36.014Z,48.45
2022-12-20T09:37:38.249Z,49.54
2022-12-20T09:39:40.271Z,48.89
2022-12-20T09:41:44.357Z,49.00
2022-12-20T09:43:46.482Z,49.33
2022-12-20T09:45:53.826Z,48.14
2022-12-20T09:47:56.074Z,48.96
2022-12-20T09:49:58.614Z,47.38
2022-12-20T09:52:29.469Z,46.20
2022-12-20T09:54:57.134Z,44.68
2022-12-20T09:57:24.263Z,44.32
2022-12-20T09:59:26.748Z,46.11
2022-12-20T10:01:38.287Z,45.75
2022-12-20T10:03:42.063Z,45.41
2022-12-20T10:05:56.636Z,44.21
2022-12-20T10:08:08.803Z,44.48
2022-12-20T10:10:21.915Z,45.55
2022-12-20T10:12:27.539Z,46.06
2022-12-20T10:14:44.858Z,44.85
2022-12-20T10:16:51.683Z,45.69
2022-12-20T10:18:55.197Z,45.61
2022-12-20T10:21:06.187Z,45.49
2022-12-20T10:23:13.946Z,46.48
2022-12-20T10:25:23.342Z,46.50
2022-12-20T10:27:26.035Z,46.82
2022-12-20T10:29:29.802Z,47.05
2022-12-20T10:31:31.890Z,47.52
2022-12-20T10:33:35.481Z,46.43
2022-12-20T10:35:40.621Z,46.89
2022-12-20T10:38:13.428Z,46.58
2022-12-20T10:40:53.371Z,45.69
2022-12-20T10:42:53.074Z,47.34
2022-12-20T10:44:56.373Z,47.04
2022-12-20T10:47:01.306Z,46.52
2022-12-20T10:49:27.133Z,45.05
2022-12-20T10:51:29.415Z,46.46
2022-12-20T10:53:32.962Z,46.00
2022-12-20T10:55:40.584Z,45.80
2022-12-20T10:57:43.275Z,46.46
2022-12-20T11:00:05.823Z,44.44
2022-12-20T11:02:38.803Z,45.04
2022-12-20T11:04:42.571Z,45.17
2022-12-20T11:06:45.787Z,44.18
2022-12-20T11:08:54.148Z,45.48
2022-12-20T11:11:19.892Z,44.59
2022-12-20T11:13:29.518Z,43.43
2022-12-20T11:15:39.198Z,44.10
2022-12-20T11:17:47.711Z,44.89
2022-12-20T11:20:22.676Z,43.76
2022-12-20T11:22:34.062Z,45.05
2022-12-20T11:25:20.607Z,45.38
2022-12-20T11:27:31.375Z,46.17
2022-12-20T11:29:56.247Z,45.54
2022-12-20T11:32:08.655Z,46.17
2022-12-20T11:34:16.336Z,44.98
2022-12-20T11:36:50.572Z,45.25
2022-12-20T11:39:15.857Z,44.65
2022-12-20T11:41:43.567Z,44.98
2022-12-20T11:44:25.930Z,43.97
2022-12-20T11:46:34.975Z,44.55
2022-12-20T11:48:49.121Z,43.74
2022-12-20T11:51:04.278Z,44.52
2022-12-20T11:53:23.257Z,43.58
2022-12-20T11:55:30.042Z,45.02
2022-12-20T11:58:09.538Z,43.32
2022-12-20T12:00:22.842Z,43.01
2022-12-20T12:02:44.009Z,41.42
2022-12-20T12:05:01.645Z,40.69
2022-12-20T12:07:20.329Z,42.73
2022-12-20T12:09:32.176Z,40.59
2022-12-20T12:12:05.838Z,41.90
2022-12-20T12:14:05.053Z,42.29
2022-12-20T12:16:11.818Z,41.79
2022-12-20T12:18:20.049Z,42.27
2022-12-20T12:20:52.363Z,41.42
2022-12-20T12:23:03.315Z,42.21
2022-12-20T12:25:11.585Z,42.38
2022-12-20T12:27:25.963Z,43.53
2022-12-20T12:29:30.104Z,44.11
2022-12-20T12:31:50.970Z,43.85
2022-12-20T12:34:27.669Z,44.08
2022-12-20T12:37:10.074Z,43.81
2022-12-20T12:39:31.290Z,44.82
2022-12-20T12:41:51.828Z,45.58
2022-12-20T12:43:57.651Z,45.47
2022-12-20T12:46:01.976Z,45.56
2022-12-20T12:48:22.773Z,44.13
2022-12-20T12:50:26.750Z,44.62
2022-12-20T12:52:43.915Z,43.98
2022-12-20T12:54:52.141Z,45.00
2022-12-20T12:57:06.940Z,44.36
2022-12-20T12:59:21.129Z,44.75
2022-12-20T13:01:54.660Z,44.15
2022-12-20T13:03:56.848Z,43.96
2022-12-20T13:05:59.194Z,43.70
2022-12-20T13:08:05.760Z,43.36
2022-12-20T13:10:18.633Z,43.78
2022-12-20T13:12:39.060Z,43.82
2022-12-20T13:14:43.528Z,44.58
2022-12-20T13:17:11.468Z,45.32
2022-12-20T13:19:25.177Z,44.55
2022-12-20T13:21:35.540Z,44.68
2022-12-20T13:23:37.873Z,45.03
2022-12-20T13:25:41.737Z,44.61
2022-12-20T13:27:44.070Z,44.59
2022-12-20T13:30:12.556Z,44.56
2022-12-20T13:32:51.712Z,44.57
2022-12-20T13:34:56.972Z,44.25
2022-12-20T13:36:59.765Z,44.73
2022-12-20T13:39:24.302Z,44.19
2022-12-20T13:41:35.806Z,44.29
2022-12-20T13:43:48.731Z,44.60
2022-12-20T13:46:09.598Z,45.06
2022-12-20T13:48:18.297Z,44.76
2022-12-20T13:50:30.284Z,44.81
2022-12-20T13:52:38.726Z,44.97
2022-12-20T13:54:43.534Z,44.98
2022-12-20T13:56:49.558Z,44.95
2022-12-20T13:58:53.237Z,45.09
2022-12-20T14:01:06.412Z,44.76
2022-12-20T14:03:29.730Z,45.32
2022-12-20T14:05:37.208Z,45.30
2022-12-20T14:07:40.447Z,45.68
2022-12-20T14:09:46.140Z,45.41
2022-12-20T14:11:48.636Z,45.54
2022-12-20T14:14:01.150Z,44.81
2022-12-20T14:16:18.146Z,45.15
2022-12-20T14:18:25.939Z,45.48
2022-12-20T14:20:33.264Z,45.97
2022-12-20T14:22:36.875Z,46.04
2022-12-20T14:24:45.009Z,44.89
2022-12-20T14:26:51.737Z,45.36
2022-12-20T14:28:57.297Z,45.67
2022-12-20T14:31:01.471Z,45.88
2022-12-20T14:33:03.988Z,46.27
2022-12-20T14:38:04.474Z,46.28
2022-12-20T14:40:09.727Z,46.72
2022-12-20T14:42:12.073Z,47.07
2022-12-20T14:44:17.581Z,46.80
2022-12-20T14:46:22.773Z,47.11
2022-12-20T14:48:24.946Z,47.13
2022-12-20T14:50:38.445Z,47.21
2022-12-20T14:52:42.723Z,47.22
2022-12-20T14:55:07.682Z,47.66
2022-12-20T14:57:22.179Z,47.64
2022-12-20T14:59:27.812Z,47.88
2022-12-20T15:01:35.953Z,48.13
2022-12-20T15:03:57.630Z,48.91
2022-12-20T15:06:00.893Z,48.32
2022-12-20T15:08:14.800Z,48.67
2022-12-20T15:10:20.144Z,48.79
2022-12-20T15:12:22.632Z,48.60
2022-12-20T15:14:37.315Z,49.29
2022-12-20T15:16:47.559Z,49.25
2022-12-20T15:18:59.279Z,49.28
2022-12-20T15:21:11.171Z,49.01
2022-12-20T15:23:19.418Z,49.57
2022-12-20T15:25:21.691Z,49.23
2022-12-20T15:27:24.664Z,49.10
2022-12-20T15:29:29.771Z,49.61
2022-12-20T15:31:35.374Z,49.74
2022-12-20T15:33:40.182Z,49.84
2022-12-20T15:35:48.553Z,49.68
2022-12-20T15:37:51.239Z,49.93
2022-12-20T15:39:53.308Z,49.86
2022-12-20T15:41:55.917Z,50.06
2022-12-20T15:44:06.183Z,50.09
2022-12-20T15:46:08.575Z,50.24
2022-12-20T15:48:33.787Z,50.54
2022-12-20T15:50:35.979Z,50.36
2022-12-20T15:52:38.260Z,50.62
2022-12-20T15:54:43.171Z,50.40
2022-12-20T15:56:45.348Z,50.45
2022-12-20T15:58:48.624Z,50.73
2022-12-20T16:00:54.564Z,50.64
2022-12-20T16:02:59.573Z,50.53
2022-12-20T16:05:02.186Z,50.89
2022-12-20T16:07:07.515Z,51.08
2022-12-20T16:09:14.628Z,51.05
2022-12-20T16:11:21.592Z,51.40
2022-12-20T16:13:25.576Z,51.13
2022-12-20T16:15:27.684Z,51.27
2022-12-20T16:17:29.810Z,51.42
2022-12-20T16:19:31.884Z,51.15
2022-12-20T16:21:49.787Z,51.80
2022-12-20T16:23:53.034Z,51.08
2022-12-20T16:25:56.157Z,52.18
2022-12-20T16:27:58.289Z,52.59
2022-12-20T16:30:03.748Z,52.18
2022-12-20T16:32:23.598Z,52.93
2022-12-20T16:34:25.916Z,52.47
2022-12-20T16:36:27.983Z,52.24
2022-12-20T16:38:30.312Z,52.25
2022-12-20T16:40:33.583Z,52.40
2022-12-20T16:42:35.552Z,52.31
2022-12-20T16:44:39.752Z,52.26
2022-12-20T16:46:42.585Z,52.43
2022-12-20T16:48:45.464Z,52.87
2022-12-20T16:50:47.578Z,52.55
2022-12-20T16:52:50.938Z,52.69
2022-12-20T16:54:53.081Z,52.24
2022-12-20T16:56:56.968Z,52.58
2022-12-20T16:59:18.700Z,52.46
2022-12-20T17:01:25.264Z,52.33
2022-12-20T17:03:27.510Z,52.54
2022-12-20T17:05:33.527Z,52.62
2022-12-20T17:07:41.255Z,52.73
2022-12-20T17:09:43.808Z,52.74
2022-12-20T17:11:46.999Z,52.74
2022-12-20T17:13:52.192Z,52.63
2022-12-20T17:15:54.310Z,52.71
2022-12-20T17:17:56.465Z,52.88
2022-12-20T17:19:59.073Z,53.25
2022-12-20T17:24:22.943Z,53.10
2022-12-20T17:26:27.420Z,53.10
2022-12-20T17:28:29.735Z,52.78
2022-12-20T17:30:32.254Z,53.07
2022-12-20T17:32:34.525Z,53.09
2022-12-20T17:34:36.802Z,53.30
2022-12-20T17:36:41.834Z,53.24
2022-12-20T17:38:44.431Z,53.00
2022-12-20T17:40:46.699Z,53.44
2022-12-20T17:42:49.353Z,53.37
2022-12-20T17:44:51.695Z,53.02
2022-12-20T17:46:58.777Z,53.12
2022-12-20T17:49:01.176Z,53.14
2022-12-20T17:51:04.122Z,53.02
2022-12-20T17:53:06.382Z,53.37
2022-12-20T17:55:16.166Z,53.35
2022-12-20T17:57:18.103Z,53.23
2022-12-20T17:59:20.818Z,52.39
2022-12-20T18:01:25.397Z,52.17
2022-12-20T18:04:02.120Z,52.40
2022-12-20T18:05:53.021Z,52.38
2022-12-20T18:07:56.076Z,52.59
2022-12-20T18:09:58.306Z,52.78
2022-12-20T18:12:03.589Z,52.77
2022-12-20T18:14:05.675Z,52.66
2022-12-20T18:16:08.527Z,53.02
2022-12-20T18:18:10.586Z,52.86
2022-12-20T18:20:13.467Z,52.91
2022-12-20T18:22:15.647Z,53.18
2022-12-20T18:24:18.251Z,52.98
2022-12-20T18:26:23.534Z,53.37
2022-12-20T18:28:25.649Z,53.06
2022-12-20T18:30:27.770Z,53.09
2022-12-20T18:32:32.238Z,53.03
2022-12-20T18:34:34.434Z,53.14
2022-12-20T18:36:39.416Z,53.17
2022-12-20T18:38:43.229Z,53.18
2022-12-20T18:40:45.980Z,53.44
2022-12-20T18:42:48.092Z,53.14
2022-12-20T18:44:50.300Z,53.17
2022-12-20T18:46:52.417Z,53.47
2022-12-20T18:48:56.013Z,53.53
2022-12-20T18:51:04.143Z,53.63
2022-12-20T18:53:06.224Z,53.66
2022-12-20T18:55:08.743Z,53.85
2022-12-20T18:57:10.948Z,53.82
2022-12-20T18:59:13.429Z,53.60
2022-12-20T19:01:18.983Z,53.50
2022-12-20T19:03:21.291Z,53.89
2022-12-20T19:05:24.837Z,54.02
2022-12-20T19:07:27.097Z,53.57
2022-12-20T19:09:29.067Z,53.66
2022-12-20T19:11:31.582Z,53.63
2022-12-20T19:13:33.628Z,53.67
2022-12-20T19:15:35.727Z,53.64
2022-12-20T19:17:38.151Z,53.65
2022-12-20T19:19:40.525Z,54.22
2022-12-20T19:21:42.834Z,53.90
2022-12-20T19:23:48.722Z,53.88
2022-12-20T19:25:52.541Z,54.18
2022-12-20T19:27:55.002Z,54.03
2022-12-20T19:29:57.001Z,54.28
2022-12-20T19:31:59.187Z,54.51
2022-12-20T19:34:04.400Z,53.91
2022-12-20T19:36:14.506Z,53.90
2022-12-20T19:38:16.923Z,54.15
2022-12-20T19:40:19.285Z,54.40
2022-12-20T19:42:24.510Z,54.48
2022-12-20T19:44:29.940Z,54.29
2022-12-20T19:46:32.347Z,54.89
2022-12-20T19:48:35.090Z,54.52
2022-12-20T19:50:37.211Z,54.84
2022-12-20T19:52:39.311Z,54.34
2022-12-20T19:54:43.389Z,54.04
2022-12-20T19:56:45.817Z,54.75
2022-12-20T19:58:48.190Z,54.60
2022-12-20T20:00:50.910Z,55.08
2022-12-20T20:02:55.895Z,54.84
2022-12-20T20:04:58.737Z,55.01
2022-12-20T20:07:01.074Z,54.89
2022-12-20T20:09:03.811Z,54.94
2022-12-20T20:11:09.816Z,54.90
2022-12-20T20:13:12.760Z,55.21
2022-12-20T20:15:17.394Z,55.27
2022-12-20T20:17:19.591Z,55.04
2022-12-20T20:19:22.250Z,54.42
2022-12-20T20:21:25.134Z,54.25
2022-12-20T20:23:27.409Z,54.30
2022-12-20T20:25:29.642Z,54.52
2022-12-20T20:27:31.659Z,54.53
2022-12-20T20:29:33.829Z,53.81
2022-12-20T20:31:37.008Z,53.74
2022-12-20T20:33:39.408Z,53.96
2022-12-20T20:35:42.397Z,53.65
2022-12-20T20:37:45.345Z,53.47
2022-12-20T20:39:48.014Z,53.43
2022-12-20T20:41:50.207Z,53.66
2022-12-20T20:43:52.827Z,53.88
2022-12-20T20:45:55.158Z,54.40
2022-12-20T20:48:01.156Z,54.33
2022-12-20T20:50:07.149Z,53.48
2022-12-20T20:52:09.287Z,53.68
2022-12-20T20:54:11.546Z,53.66
2022-12-20T20:56:13.694Z,53.63
2022-12-20T20:58:16.667Z,54.04
2022-12-20T21:00:19.465Z,53.85
2022-12-20T21:02:23.952Z,53.26
2022-12-20T21:04:26.117Z,53.31
2022-12-20T21:06:39.220Z,52.93
2022-12-20T21:08:43.244Z,52.82
2022-12-20T21:10:45.407Z,53.21
2022-12-20T21:12:48.321Z,53.83
2022-12-20T21:17:12.995Z,53.79
2022-12-20T21:19:15.012Z,53.97
2022-12-20T21:21:17.382Z,54.05
2022-12-20T21:23:22.754Z,53.45
2022-12-20T21:25:27.683Z,53.83
2022-12-20T21:27:29.811Z,53.56
2022-12-20T21:29:32.118Z,53.77
2022-12-20T21:31:35.429Z,54.12
2022-12-20T21:33:38.573Z,53.93
2022-12-20T21:35:40.990Z,53.98
2022-12-20T21:37:43.383Z,54.04
2022-12-20T21:39:45.678Z,53.95
2022-12-20T21:41:48.211Z,53.77
2022-12-20T21:43:51.603Z,53.62
2022-12-20T21:45:54.105Z,53.47
2022-12-20T21:48:02.748Z,53.45
2022-12-20T21:50:06.007Z,53.23
2022-12-20T21:52:08.350Z,53.47
2022-12-20T21:54:10.846Z,53.61
2022-12-20T21:56:18.196Z,53.46
2022-12-20T21:58:20.842Z,53.13
2022-12-20T22:00:23.419Z,53.46
2022-12-20T22:02:25.714Z,53.38
2022-12-20T22:04:28.294Z,53.70
2022-12-20T22:06:31.681Z,53.41
2022-12-20T22:08:35.028Z,53.59
2022-12-20T22:10:37.109Z,53.76
2022-12-20T22:12:39.450Z,53.55
2022-12-20T22:14:41.626Z,53.69
2022-12-20T22:16:44.399Z,52.93
2022-12-20T22:18:50.222Z,53.02
2022-12-20T22:20:52.736Z,53.38
2022-12-20T22:22:57.661Z,53.49
2022-12-20T22:25:02.408Z,53.37
2022-12-20T22:27:11.021Z,53.63
2022-12-20T22:29:16.349Z,53.11
2022-12-20T22:31:19.719Z,53.31
2022-12-20T22:33:23.077Z,52.94
2022-12-20T22:35:25.149Z,52.80
2022-12-20T22:37:28.538Z,52.97
2022-12-20T22:39:30.546Z,53.29
2022-12-20T22:41:37.095Z,53.46
2022-12-20T22:43:42.241Z,53.05
2022-12-20T22:45:44.439Z,53.39
2022-12-20T22:47:46.901Z,53.24
2022-12-20T22:49:49.228Z,53.69
2022-12-20T22:52:02.741Z,53.57
2022-12-20T22:54:09.473Z,53.83
2022-12-20T22:56:12.508Z,53.78
2022-12-20T22:58:15.021Z,53.65
2022-12-20T23:00:17.416Z,53.65
2022-12-20T23:02:19.833Z,53.60
2022-12-20T23:04:22.256Z,53.90
2022-12-20T23:06:24.521Z,54.11
2022-12-20T23:08:29.741Z,53.99
2022-12-20T23:10:51.518Z,54.01
2022-12-20T23:13:12.068Z,54.15
2022-12-20T23:15:32.553Z,54.18
2022-12-20T23:17:37.044Z,54.21
2022-12-20T23:19:57.513Z,54.40
2022-12-20T23:22:18.364Z,54.75
2022-12-20T23:24:22.947Z,54.72
2022-12-20T23:26:26.847Z,54.50
2022-12-20T23:28:29.000Z,54.40
2022-12-20T23:30:31.049Z,54.44
2022-12-20T23:32:35.917Z,54.63
2022-12-20T23:34:38.004Z,54.78
2022-12-20T23:36:41.090Z,54.59
2022-12-20T23:38:46.060Z,54.71
2022-12-20T23:40:48.359Z,54.59
2022-12-20T23:42:53.751Z,54.82
2022-12-20T23:44:58.885Z,54.83
2022-12-20T23:47:01.135Z,54.53
2022-12-20T23:49:03.559Z,55.04
2022-12-20T23:51:06.464Z,54.53
2022-12-20T23:53:08.874Z,54.86
2022-12-20T23:55:11.395Z,55.36
2022-12-20T23:57:14.185Z,54.78
2022-12-20T23:59:16.355Z,55.03
